createdAt,value
2022-11-15T20:13:37.445Z,929.17
2022-11-15T20:14:38.289Z,929.19
2022-11-15T20:15:39.766Z,929.14
2022-11-15T20:16:39.004Z,929.18
2022-11-15T20:17:38.234Z,929.23
2022-11-15T20:18:38.958Z,929.28
2022-11-15T20:19:40.034Z,929.30
2022-11-15T20:20:38.234Z,929.30
2022-11-15T20:21:38.202Z,929.31
2022-11-15T20:24:16.514Z,929.32
2022-11-15T20:25:06.813Z,929.36
2022-11-15T20:26:06.828Z,929.38
2022-11-15T20:27:06.794Z,929.36
2022-11-15T20:28:07.518Z,929.43
2022-11-15T20:29:06.745Z,929.40
2022-11-15T20:30:06.758Z,929.41
2022-11-15T20:31:07.332Z,929.42
2022-11-15T20:32:07.284Z,929.42
2022-11-15T20:33:06.737Z,929.43
2022-11-15T20:34:06.712Z,929.39
2022-11-15T20:35:06.821Z,929.42
2022-11-15T20:36:06.671Z,929.42
2022-11-15T20:37:10.096Z,929.40
2022-11-15T20:38:06.668Z,929.40
2022-11-15T20:39:06.667Z,929.43
2022-11-15T20:40:06.671Z,929.44
2022-11-15T20:41:06.618Z,929.45
2022-11-15T20:42:08.058Z,929.45
2022-11-15T20:43:07.525Z,929.45
2022-11-15T20:44:06.577Z,929.41
2022-11-15T20:45:07.284Z,929.43
2022-11-15T20:46:06.559Z,929.47
2022-11-15T20:47:06.571Z,929.46
2022-11-15T20:48:06.566Z,929.39
2022-11-15T20:49:06.558Z,929.40
2022-11-15T20:50:35.432Z,929.47
2022-11-15T20:51:06.546Z,929.43
2022-11-15T20:52:06.475Z,929.35
2022-11-15T20:53:09.318Z,929.46
2022-11-15T20:54:06.478Z,929.46
2022-11-15T20:55:06.473Z,929.42
2022-11-15T20:56:07.316Z,929.50
2022-11-15T20:57:06.443Z,929.57
2022-11-15T20:58:06.405Z,929.53
2022-11-15T20:59:08.988Z,929.54
2022-11-15T21:00:07.427Z,929.59
2022-11-15T21:01:09.071Z,929.53
2022-11-15T21:02:06.508Z,929.49
2022-11-15T21:03:06.422Z,929.55
2022-11-15T21:04:07.370Z,929.58
2022-11-15T21:05:07.316Z,929.64
2022-11-15T21:06:07.325Z,929.68
2022-11-15T21:07:07.166Z,929.76
2022-11-15T21:08:06.326Z,929.71
2022-11-15T21:09:08.304Z,929.70
2022-11-15T21:10:06.311Z,929.72
2022-11-15T21:11:06.876Z,929.69
2022-11-15T21:12:06.275Z,929.66
2022-11-15T21:13:07.745Z,929.67
2022-11-15T21:14:09.271Z,929.60
2022-11-15T21:15:06.213Z,929.62
2022-11-15T21:16:06.325Z,929.61
2022-11-15T21:17:06.495Z,929.62
2022-11-15T21:18:06.834Z,929.59
2022-11-15T21:19:08.088Z,929.60
2022-11-15T21:20:06.217Z,929.61
2022-11-15T21:21:06.197Z,929.64
2022-11-15T21:22:06.165Z,929.58
2022-11-15T21:23:06.193Z,929.60
2022-11-15T21:24:06.125Z,929.55
2022-11-15T21:25:06.131Z,929.62
2022-11-15T21:26:06.111Z,929.66
2022-11-15T21:27:06.844Z,929.66
2022-11-15T21:28:06.879Z,929.68
2022-11-15T21:29:06.075Z,929.70
2022-11-15T21:30:06.043Z,929.74
2022-11-15T21:31:06.126Z,929.76
2022-11-15T21:32:07.251Z,929.76
2022-11-15T21:33:06.062Z,929.74
2022-11-15T21:34:06.891Z,929.78
2022-11-15T21:35:06.042Z,929.79
2022-11-15T21:36:06.016Z,929.74
2022-11-15T21:37:08.315Z,929.76
2022-11-15T21:38:05.996Z,929.77
2022-11-15T21:39:06.000Z,929.76
2022-11-15T21:40:05.980Z,929.76
2022-11-15T21:41:05.999Z,929.80
2022-11-15T21:42:05.933Z,929.80
2022-11-15T21:43:05.892Z,929.80
2022-11-15T21:44:06.710Z,929.80
2022-11-15T21:45:07.772Z,929.82
2022-11-15T21:46:05.925Z,929.85
2022-11-15T21:47:07.486Z,929.87
2022-11-15T21:48:05.919Z,929.89
2022-11-15T21:49:07.029Z,929.90
2022-11-15T21:50:05.852Z,929.93
2022-11-15T21:51:05.853Z,929.98
2022-11-15T21:52:12.325Z,930.02
2022-11-15T21:53:05.851Z,929.98
2022-11-15T21:54:06.713Z,930.03
2022-11-15T21:55:06.368Z,930.02
2022-11-15T21:56:07.523Z,930.09
2022-11-15T21:57:05.778Z,930.11
2022-11-15T21:58:07.679Z,930.12
2022-11-15T21:59:05.741Z,930.16
2022-11-15T22:00:06.473Z,930.18
2022-11-15T22:01:08.680Z,930.17
2022-11-15T22:02:05.720Z,930.20
2022-11-15T22:03:06.362Z,930.21
2022-11-15T22:04:12.990Z,930.22
2022-11-15T22:05:08.027Z,930.24
2022-11-15T22:06:05.670Z,930.25
2022-11-15T22:07:05.744Z,930.28
2022-11-15T22:08:05.630Z,930.28
2022-11-15T22:09:08.242Z,930.31
2022-11-15T22:10:06.556Z,930.31
2022-11-15T22:11:05.599Z,930.39
2022-11-15T22:12:07.399Z,930.43
2022-11-15T22:13:05.614Z,930.52
2022-11-15T22:14:05.572Z,930.52
2022-11-15T22:15:06.689Z,930.52
2022-11-15T22:16:05.593Z,930.59
2022-11-15T22:17:05.569Z,930.64
2022-11-15T22:18:05.538Z,930.69
2022-11-15T22:19:05.504Z,930.72
2022-11-15T22:20:23.116Z,930.70
2022-11-15T22:21:06.351Z,930.73
2022-11-15T22:22:10.116Z,930.76
2022-11-15T22:23:43.400Z,930.74
2022-11-15T22:24:06.324Z,930.76
2022-11-15T22:25:05.655Z,930.74
2022-11-15T22:26:06.244Z,930.74
2022-11-15T22:27:05.440Z,930.72
2022-11-15T22:28:05.408Z,930.73
2022-11-15T22:29:05.388Z,930.77
2022-11-15T22:30:05.340Z,930.81
2022-11-15T22:31:05.384Z,930.84
2022-11-15T22:32:05.373Z,930.83
2022-11-15T22:33:07.167Z,930.88
2022-11-15T22:34:18.385Z,930.97
2022-11-15T22:37:53.483Z,931.00
2022-11-15T22:38:54.324Z,930.97
2022-11-15T22:40:01.301Z,931.00
2022-11-15T22:40:55.289Z,930.98
2022-11-15T22:41:53.763Z,931.00
2022-11-15T22:42:54.726Z,931.05
2022-11-15T22:43:56.026Z,931.05
2022-11-15T22:44:54.543Z,931.04
2022-11-15T22:46:05.145Z,931.08
2022-11-15T22:46:53.745Z,931.05
2022-11-15T22:47:54.361Z,931.07
2022-11-15T22:48:58.582Z,931.01
2022-11-15T22:49:53.703Z,931.06
2022-11-15T22:50:53.727Z,931.02
2022-11-15T22:53:09.026Z,931.07
2022-11-15T22:54:09.205Z,931.06
2022-11-15T22:55:10.101Z,931.01
2022-11-15T22:56:10.694Z,931.04
2022-11-15T22:57:12.071Z,931.08
2022-11-15T22:58:09.934Z,931.10
2022-11-15T22:59:13.293Z,931.08
2022-11-15T23:00:11.439Z,931.10
2022-11-15T23:01:09.825Z,931.12
2022-11-15T23:02:15.320Z,931.11
2022-11-15T23:03:10.663Z,931.13
2022-11-15T23:04:09.811Z,931.22
2022-11-15T23:05:09.040Z,931.07
2022-11-15T23:06:09.101Z,931.08
2022-11-15T23:07:14.007Z,931.16
2022-11-15T23:08:13.730Z,931.14
2022-11-15T23:09:12.813Z,931.12
2022-11-15T23:10:13.483Z,931.15
2022-11-15T23:11:09.006Z,931.15
2022-11-15T23:12:12.311Z,931.18
2022-11-15T23:13:11.484Z,931.21
2022-11-15T23:14:13.483Z,931.26
2022-11-15T23:15:33.502Z,931.21
2022-11-15T23:16:10.001Z,931.30
2022-11-15T23:17:09.699Z,931.27
2022-11-15T23:18:18.783Z,931.33
2022-11-15T23:19:10.635Z,931.33
2022-11-15T23:20:42.048Z,931.37
2022-11-15T23:21:09.044Z,931.42
2022-11-15T23:22:09.661Z,931.41
2022-11-15T23:23:09.760Z,931.40
2022-11-15T23:24:12.751Z,931.43
2022-11-15T23:25:08.831Z,931.42
2022-11-15T23:26:10.725Z,931.45
2022-11-15T23:27:08.813Z,931.44
2022-11-15T23:28:10.804Z,931.47
2022-11-15T23:29:12.070Z,931.46
2022-11-15T23:30:08.811Z,931.54
2022-11-15T23:31:08.776Z,931.52
2022-11-15T23:32:08.772Z,931.53
2022-11-15T23:33:18.468Z,931.54
2022-11-15T23:34:22.489Z,931.54
2022-11-15T23:35:10.280Z,931.53
2022-11-15T23:36:09.507Z,931.61
2022-11-15T23:37:08.678Z,931.60
2022-11-15T23:38:08.690Z,931.62
2022-11-15T23:39:08.669Z,931.60
2022-11-15T23:40:10.587Z,931.64
2022-11-15T23:41:09.820Z,931.67
2022-11-15T23:42:10.098Z,931.60
2022-11-15T23:43:08.624Z,931.66
2022-11-15T23:44:09.821Z,931.70
2022-11-15T23:45:08.640Z,931.68
2022-11-15T23:46:08.587Z,931.72
2022-11-15T23:47:08.593Z,931.81
2022-11-15T23:48:08.635Z,931.70
2022-11-15T23:49:08.541Z,931.72
2022-11-15T23:50:08.568Z,931.75
2022-11-15T23:51:08.539Z,931.74
2022-11-15T23:52:08.515Z,931.73
2022-11-15T23:53:09.533Z,931.77
2022-11-15T23:54:10.280Z,931.80
2022-11-15T23:56:37.870Z,931.81
2022-11-15T23:57:10.575Z,931.82
2022-11-15T23:57:43.571Z,931.80
2022-11-15T23:58:44.587Z,931.77
2022-11-15T23:59:47.036Z,931.76
